createdAt,value
2023-04-14T00:02:11.469Z,93854.44
2023-04-14T00:04:38.368Z,93844.34
2023-04-14T00:07:05.479Z,93842.50
2023-04-14T00:09:32.697Z,93840.94
2023-04-14T00:11:59.662Z,93844.13
2023-04-14T00:14:26.344Z,93843.31
2023-04-14T00:16:53.097Z,93833.75
2023-04-14T00:19:20.406Z,93835.69
2023-04-14T00:21:47.516Z,93842.13
2023-04-14T00:24:14.251Z,93860.31
2023-04-14T00:26:41.127Z,93828.56
2023-04-14T00:29:07.841Z,93821.03
2023-04-14T00:31:34.650Z,93823.38
2023-04-14T00:34:01.817Z,93820.28
2023-04-14T00:36:32.221Z,93857.50
2023-04-14T00:39:00.837Z,93812.53
2023-04-14T00:41:33.283Z,93854.59
2023-04-14T00:44:02.080Z,93848.75
2023-04-14T00:46:29.477Z,93847.78
2023-04-14T00:48:56.648Z,93850.59
2023-04-14T00:51:24.550Z,93812.78
2023-04-14T00:53:53.441Z,93827.41
2023-04-14T00:56:21.305Z,93812.56
2023-04-14T00:58:48.482Z,93842.31
2023-04-14T01:01:16.103Z,93817.09
2023-04-14T01:03:44.548Z,93850.00
2023-04-14T01:06:11.686Z,93848.59
2023-04-14T01:08:38.501Z,93851.84
2023-04-14T01:11:37.619Z,93832.78
2023-04-14T01:14:22.396Z,93840.56
2023-04-14T01:16:53.533Z,93813.97
2023-04-14T01:19:26.447Z,93838.84
2023-04-14T01:21:57.945Z,93838.88
2023-04-14T01:24:43.534Z,93847.88
2023-04-14T01:27:40.689Z,93803.00
2023-04-14T01:30:31.144Z,93791.81
2023-04-14T01:33:00.199Z,93839.41
2023-04-14T01:35:36.970Z,93860.44
2023-04-14T01:38:15.842Z,93841.25
2023-04-14T01:40:48.393Z,93850.78
2023-04-14T01:43:16.844Z,93839.53
2023-04-14T01:45:51.562Z,93857.09
2023-04-14T01:48:20.104Z,93836.91
2023-04-14T01:50:48.871Z,93806.31
2023-04-14T01:53:17.766Z,93857.00
2023-04-14T01:55:47.888Z,93864.69
2023-04-14T01:58:17.734Z,93848.22
2023-04-14T02:00:46.088Z,93825.88
2023-04-14T02:03:14.246Z,93836.88
2023-04-14T02:05:42.378Z,93841.25
2023-04-14T02:08:12.811Z,93840.22
2023-04-14T02:10:44.263Z,93835.66
2023-04-14T02:13:12.283Z,93802.16
2023-04-14T02:15:40.894Z,93847.66
2023-04-14T02:18:08.251Z,93836.34
2023-04-14T02:20:38.893Z,93844.09
2023-04-14T02:23:05.702Z,93840.56
2023-04-14T02:25:35.610Z,93776.34
2023-04-14T02:28:18.172Z,93803.44
2023-04-14T02:30:49.358Z,93788.00
2023-04-14T02:33:31.594Z,93789.59
2023-04-14T02:36:13.217Z,93807.22
2023-04-14T02:38:48.248Z,93786.25
2023-04-14T02:41:26.303Z,93810.25
2023-04-14T02:43:59.634Z,93797.56
2023-04-14T02:46:29.643Z,93800.94
2023-04-14T02:48:59.661Z,93807.47
2023-04-14T02:51:28.199Z,93793.22
2023-04-14T02:53:55.545Z,93817.88
2023-04-14T02:56:39.695Z,93819.84
2023-04-14T02:59:08.005Z,93818.28
2023-04-14T03:01:39.504Z,93822.31
2023-04-14T03:04:07.410Z,93806.56
2023-04-14T03:06:38.859Z,93794.63
2023-04-14T03:09:07.195Z,93803.03
2023-04-14T03:11:37.473Z,93814.66
2023-04-14T03:14:06.340Z,93802.72
2023-04-14T03:16:35.865Z,93795.47
2023-04-14T03:19:04.217Z,93784.13
2023-04-14T03:21:32.247Z,93808.84
2023-04-14T03:23:59.924Z,93776.19
2023-04-14T03:26:29.417Z,93815.72
2023-04-14T03:28:58.810Z,93789.56
2023-04-14T03:31:37.189Z,93797.66
2023-04-14T03:34:07.118Z,93756.97
2023-04-14T03:36:39.557Z,93799.78
2023-04-14T03:39:10.935Z,93814.16
2023-04-14T03:41:40.539Z,93814.00
2023-04-14T03:44:15.893Z,93804.81
2023-04-14T03:46:45.754Z,93796.25
2023-04-14T03:49:16.829Z,93823.94
2023-04-14T03:51:50.108Z,93843.41
2023-04-14T03:54:19.610Z,93799.81
2023-04-14T03:56:48.324Z,93814.59
2023-04-14T03:59:19.631Z,93781.53
2023-04-14T04:01:47.841Z,93791.09
2023-04-14T04:04:15.932Z,93794.13
2023-04-14T04:06:43.407Z,93778.25
2023-04-14T04:09:14.541Z,93764.44
2023-04-14T04:11:43.417Z,93789.84
2023-04-14T04:14:13.149Z,93760.13
2023-04-14T04:16:43.305Z,93781.28
2023-04-14T04:19:13.901Z,93768.06
2023-04-14T04:21:44.604Z,93777.25
2023-04-14T04:24:13.483Z,93792.50
2023-04-14T04:26:40.796Z,93771.22
2023-04-14T04:29:08.350Z,93809.69
2023-04-14T04:31:36.468Z,93795.44
2023-04-14T04:34:06.165Z,93785.69
2023-04-14T04:36:37.145Z,93801.28
2023-04-14T04:39:04.073Z,93798.91
2023-04-14T04:41:36.195Z,93811.03
2023-04-14T04:44:03.366Z,93816.31
2023-04-14T04:46:55.394Z,93823.06
2023-04-14T04:49:25.719Z,93819.97
2023-04-14T04:51:53.795Z,93831.63
2023-04-14T04:54:21.330Z,93819.50
2023-04-14T04:56:48.443Z,93840.94
2023-04-14T04:59:16.539Z,93829.50
2023-04-14T05:01:43.537Z,93839.00
2023-04-14T05:04:10.334Z,93828.63
2023-04-14T05:06:37.914Z,93823.06
2023-04-14T05:09:05.471Z,93828.03
2023-04-14T05:11:33.168Z,93835.44
2023-04-14T05:13:59.838Z,93800.69
2023-04-14T05:16:28.292Z,93812.13
2023-04-14T05:18:55.023Z,93843.03
2023-04-14T05:21:22.333Z,93808.44
2023-04-14T05:23:49.398Z,93804.66
2023-04-14T05:28:47.085Z,93806.13
2023-04-14T05:31:13.970Z,93831.38
2023-04-14T05:33:40.820Z,93827.00
2023-04-14T05:36:08.348Z,93811.88
2023-04-14T05:38:41.873Z,93818.81
2023-04-14T05:41:09.198Z,93812.84
2023-04-14T05:43:37.272Z,93806.44
2023-04-14T05:46:04.477Z,93816.28
2023-04-14T05:48:33.317Z,93823.41
2023-04-14T05:51:00.493Z,93815.84
2023-04-14T05:53:27.861Z,93803.84
2023-04-14T05:55:54.742Z,93828.50
2023-04-14T05:58:22.012Z,93844.38
2023-04-14T06:00:49.069Z,93834.50
2023-04-14T06:03:17.019Z,93821.25
2023-04-14T06:05:43.996Z,93856.03
2023-04-14T06:08:10.937Z,93826.84
2023-04-14T06:10:37.751Z,93850.41
2023-04-14T06:13:04.499Z,93837.13
2023-04-14T06:15:31.612Z,93825.56
2023-04-14T06:17:58.474Z,93845.34
2023-04-14T06:20:25.798Z,93829.78
2023-04-14T06:22:52.903Z,93848.88
2023-04-14T06:25:19.758Z,93843.91
2023-04-14T06:27:46.578Z,93853.66
2023-04-14T06:30:15.410Z,93866.78
2023-04-14T06:32:42.311Z,93864.63
2023-04-14T06:35:16.459Z,93854.75
2023-04-14T06:37:50.591Z,93858.13
2023-04-14T06:40:17.604Z,93838.69
2023-04-14T06:42:44.373Z,93839.25
2023-04-14T06:45:11.451Z,93842.19
2023-04-14T06:47:38.527Z,93855.59
2023-04-14T06:50:06.419Z,93820.34
2023-04-14T06:52:33.690Z,93841.72
2023-04-14T06:55:00.739Z,93832.97
2023-04-14T06:57:27.498Z,93835.41
2023-04-14T06:59:54.610Z,93846.63
2023-04-14T07:02:21.984Z,93834.16
2023-04-14T07:04:49.070Z,93848.06
2023-04-14T07:07:15.825Z,93846.91
2023-04-14T07:09:43.644Z,93834.97
2023-04-14T07:12:14.619Z,93854.06
2023-04-14T07:14:41.588Z,93854.41
2023-04-14T07:17:09.479Z,93874.28
2023-04-14T07:19:36.938Z,93864.13
2023-04-14T07:22:04.009Z,93828.34
2023-04-14T07:24:30.861Z,93844.84
2023-04-14T07:26:57.917Z,93879.13
2023-04-14T07:29:29.549Z,93887.38
2023-04-14T07:31:58.663Z,93833.00
2023-04-14T07:34:28.107Z,93874.72
2023-04-14T07:36:55.191Z,93873.75
2023-04-14T07:39:23.711Z,93839.53
2023-04-14T07:41:51.031Z,93842.03
2023-04-14T07:44:18.218Z,93885.97
2023-04-14T07:46:45.148Z,93870.13
2023-04-14T07:49:12.001Z,93866.03
2023-04-14T07:51:38.893Z,93858.63
2023-04-14T07:54:06.297Z,93877.78
2023-04-14T07:56:33.282Z,93859.22
2023-04-14T07:59:01.603Z,93857.56
2023-04-14T08:01:28.725Z,93878.56
2023-04-14T08:03:55.810Z,93879.25
2023-04-14T08:06:23.477Z,93876.81
2023-04-14T08:08:50.479Z,93907.22
2023-04-14T08:11:17.233Z,93889.16
2023-04-14T08:13:44.361Z,93904.44
2023-04-14T08:16:11.173Z,93916.38
2023-04-14T08:18:40.771Z,93904.41
2023-04-14T08:21:07.789Z,93925.69
2023-04-14T08:23:34.852Z,93925.69
2023-04-14T08:26:01.848Z,93943.16
2023-04-14T08:28:29.481Z,93916.13
2023-04-14T08:30:56.348Z,93872.66
2023-04-14T08:33:23.238Z,93908.25
2023-04-14T08:35:56.576Z,93901.94
2023-04-14T08:38:27.746Z,93902.06
2023-04-14T08:40:58.529Z,93887.97
2023-04-14T08:43:25.787Z,93919.03
2023-04-14T08:45:54.459Z,93896.00
2023-04-14T08:48:25.550Z,93918.06
2023-04-14T08:51:33.149Z,93939.94
2023-04-14T08:54:01.761Z,93875.94
2023-04-14T08:56:33.804Z,93884.66
2023-04-14T08:59:01.929Z,93914.72
2023-04-14T09:01:29.850Z,93902.72
2023-04-14T09:03:57.736Z,93895.34
2023-04-14T09:06:25.666Z,93877.25
2023-04-14T09:08:53.627Z,93868.88
2023-04-14T09:11:20.817Z,93871.63
2023-04-14T09:13:49.684Z,93887.28
2023-04-14T09:16:17.578Z,93922.53
2023-04-14T09:18:47.131Z,93863.13
2023-04-14T09:21:50.412Z,93885.59
2023-04-14T09:24:01.174Z,93888.47
2023-04-14T09:26:29.130Z,93888.94
2023-04-14T09:28:56.159Z,93858.53
2023-04-14T09:31:24.877Z,93861.38
2023-04-14T09:33:52.040Z,93864.78
2023-04-14T09:36:26.744Z,93888.00
2023-04-14T09:38:53.909Z,93865.72
2023-04-14T09:41:32.606Z,93881.94
2023-04-14T09:44:07.654Z,93907.22
2023-04-14T09:46:34.963Z,93917.78
2023-04-14T09:49:07.138Z,93902.72
2023-04-14T09:51:35.165Z,93891.69
2023-04-14T09:54:03.831Z,93904.91
2023-04-14T09:56:31.612Z,93900.47
2023-04-14T09:59:00.880Z,93924.31
2023-04-14T10:01:31.759Z,93891.16
2023-04-14T10:03:58.681Z,93899.69
2023-04-14T10:06:26.605Z,93923.19
2023-04-14T10:08:55.597Z,93934.03
2023-04-14T10:11:30.792Z,93878.78
2023-04-14T10:13:59.294Z,93929.91
2023-04-14T10:16:27.473Z,93925.81
2023-04-14T10:18:57.617Z,93897.66
2023-04-14T10:21:27.793Z,93875.38
2023-04-14T10:23:57.213Z,93875.22
2023-04-14T10:26:24.806Z,93875.22
2023-04-14T10:28:56.626Z,93884.34
2023-04-14T10:31:34.828Z,93890.59
2023-04-14T10:34:13.282Z,93898.63
2023-04-14T10:36:41.782Z,93876.63
2023-04-14T10:39:11.845Z,93887.53
2023-04-14T10:41:47.670Z,93882.09
2023-04-14T10:44:32.206Z,93875.69
2023-04-14T10:47:02.292Z,93891.06
2023-04-14T10:49:34.630Z,93860.94
2023-04-14T10:52:27.792Z,93852.00
2023-04-14T10:55:17.188Z,93845.88
2023-04-14T10:57:45.965Z,93826.31
2023-04-14T11:00:25.623Z,93833.56
2023-04-14T11:03:07.937Z,93827.56
2023-04-14T11:05:35.788Z,93819.75
2023-04-14T11:08:16.508Z,93819.63
2023-04-14T11:10:51.454Z,93830.06
2023-04-14T11:13:19.228Z,93835.00
2023-04-14T11:16:06.941Z,93776.00
2023-04-14T11:18:42.719Z,93828.44
2023-04-14T11:21:16.722Z,93809.13
2023-04-14T11:23:44.065Z,93816.84
2023-04-14T11:26:13.490Z,93778.00
2023-04-14T11:28:45.117Z,93825.81
2023-04-14T11:31:13.247Z,93804.84
2023-04-14T11:33:42.338Z,93832.34
2023-04-14T11:36:11.277Z,93802.88
2023-04-14T11:38:41.194Z,93803.66
2023-04-14T11:41:08.891Z,93803.94
2023-04-14T11:43:38.039Z,93780.94
2023-04-14T11:46:06.180Z,93723.94
2023-04-14T11:48:33.013Z,93763.97
2023-04-14T11:51:03.747Z,93830.44
2023-04-14T11:53:31.023Z,93844.44
2023-04-14T11:55:58.211Z,93815.59
2023-04-14T11:58:27.562Z,93793.47
2023-04-14T12:00:56.626Z,93786.84
2023-04-14T12:03:35.903Z,93787.84
2023-04-14T12:06:03.314Z,93762.69
2023-04-14T12:08:31.612Z,93797.69
2023-04-14T12:10:58.990Z,93772.88
2023-04-14T12:13:27.062Z,93762.00
2023-04-14T12:15:54.460Z,93745.44
2023-04-14T12:18:23.078Z,93758.94
2023-04-14T12:21:02.607Z,93790.13
2023-04-14T12:23:29.530Z,93789.25
2023-04-14T12:25:57.072Z,93749.63
2023-04-14T12:28:30.470Z,93746.78
2023-04-14T12:31:01.526Z,93751.31
2023-04-14T12:33:30.020Z,93720.75
2023-04-14T12:36:10.518Z,93819.75
2023-04-14T12:38:37.849Z,93814.41
2023-04-14T12:43:34.735Z,93685.19
2023-04-14T12:46:03.853Z,93733.72
2023-04-14T12:48:45.955Z,93707.94
2023-04-14T12:51:15.874Z,93691.06
2023-04-14T12:53:47.639Z,93702.16
2023-04-14T12:56:16.709Z,93733.94
2023-04-14T12:58:48.573Z,93738.78
2023-04-14T13:01:19.371Z,93723.81
2023-04-14T13:03:52.025Z,93720.56
2023-04-14T13:06:21.009Z,93754.00
2023-04-14T13:08:57.289Z,93741.53
2023-04-14T13:11:24.845Z,93713.94
2023-04-14T13:13:53.440Z,93751.03
2023-04-14T13:16:21.035Z,93791.81
2023-04-14T13:18:48.893Z,93764.50
2023-04-14T13:21:16.542Z,93745.34
2023-04-14T13:23:44.211Z,93726.72
2023-04-14T13:26:11.482Z,93714.63
2023-04-14T13:28:38.376Z,93729.28
2023-04-14T13:31:05.556Z,93786.03
2023-04-14T13:33:33.047Z,93748.09
2023-04-14T13:36:02.321Z,93737.84
2023-04-14T13:38:29.466Z,93714.03
2023-04-14T13:40:56.465Z,93724.19
2023-04-14T13:43:23.836Z,93715.78
2023-04-14T13:45:50.728Z,93685.53
2023-04-14T13:48:17.538Z,93699.91
2023-04-14T13:50:44.333Z,93734.91
2023-04-14T13:53:12.667Z,93707.41
2023-04-14T13:55:39.534Z,93686.28
2023-04-14T13:58:06.391Z,93712.59
2023-04-14T14:00:33.218Z,93695.63
2023-04-14T14:03:00.426Z,93716.00
2023-04-14T14:05:29.003Z,93698.78
2023-04-14T14:07:57.968Z,93718.41
2023-04-14T14:10:25.215Z,93713.91
2023-04-14T14:12:52.394Z,93733.38
2023-04-14T14:15:19.254Z,93746.09
2023-04-14T14:17:46.478Z,93734.66
2023-04-14T14:20:13.325Z,93745.38
2023-04-14T14:22:40.530Z,93759.56
2023-04-14T14:25:19.198Z,93736.91
2023-04-14T14:27:47.036Z,93729.16
2023-04-14T14:30:14.222Z,93747.38
2023-04-14T14:32:41.046Z,93752.19
2023-04-14T14:35:09.709Z,93709.91
2023-04-14T14:37:36.695Z,93754.63
2023-04-14T14:40:04.005Z,93769.16
2023-04-14T14:42:31.092Z,93756.97
2023-04-14T14:44:59.772Z,93729.91
2023-04-14T14:47:29.102Z,93748.19
2023-04-14T14:50:02.824Z,93740.16
2023-04-14T14:52:32.354Z,93739.97
2023-04-14T14:54:59.841Z,93729.56
2023-04-14T14:57:27.605Z,93719.38
2023-04-14T14:59:54.499Z,93734.88
2023-04-14T15:02:22.587Z,93682.19
2023-04-14T15:04:49.978Z,93776.41
2023-04-14T15:07:17.619Z,93719.91
2023-04-14T15:09:47.168Z,93723.88
2023-04-14T15:12:14.001Z,93684.41
2023-04-14T15:14:40.757Z,93723.56
2023-04-14T15:17:08.187Z,93755.69
2023-04-14T15:19:36.193Z,93757.94
2023-04-14T15:22:02.943Z,93779.56
2023-04-14T15:24:30.141Z,93794.00
2023-04-14T15:26:57.729Z,93767.56
2023-04-14T15:29:26.103Z,93730.63
2023-04-14T15:31:53.446Z,93800.34
2023-04-14T15:34:21.409Z,93771.44
2023-04-14T15:36:48.317Z,93767.75
2023-04-14T15:39:15.785Z,93781.13
2023-04-14T15:41:43.894Z,93770.75
2023-04-14T15:44:10.645Z,93735.88
2023-04-14T15:46:37.366Z,93731.94
2023-04-14T15:49:04.174Z,93746.19
2023-04-14T15:51:30.971Z,93717.66
2023-04-14T15:53:57.994Z,93699.56
2023-04-14T15:56:24.987Z,93696.63
2023-04-14T15:58:51.686Z,93710.22
2023-04-14T16:01:18.442Z,93690.66
2023-04-14T16:03:46.089Z,93743.53
2023-04-14T16:06:13.334Z,93739.81
2023-04-14T16:08:40.199Z,93773.28
2023-04-14T16:11:07.805Z,93760.03
2023-04-14T16:13:34.599Z,93776.13
2023-04-14T16:16:01.635Z,93741.56
2023-04-14T16:18:29.638Z,93775.69
2023-04-14T16:20:56.445Z,93788.03
2023-04-14T16:23:25.272Z,93770.50
2023-04-14T16:25:51.989Z,93780.75
2023-04-14T16:28:19.000Z,93755.97
2023-04-14T16:30:46.055Z,93770.06
2023-04-14T16:33:13.696Z,93775.06
2023-04-14T16:35:41.091Z,93826.91
2023-04-14T16:38:11.157Z,93819.06
2023-04-14T16:40:38.037Z,93837.84
2023-04-14T16:43:04.952Z,93779.78
2023-04-14T16:45:32.281Z,93778.09
2023-04-14T16:48:00.275Z,93822.06
2023-04-14T16:50:27.592Z,93819.13
2023-04-14T16:52:55.078Z,93787.31
2023-04-14T16:55:21.799Z,93785.72
2023-04-14T16:57:48.602Z,93787.72
2023-04-14T17:00:16.854Z,93788.28
2023-04-14T17:02:45.158Z,93784.94
2023-04-14T17:05:16.815Z,93808.91
2023-04-14T17:07:44.086Z,93771.91
2023-04-14T17:10:11.957Z,93769.53
2023-04-14T17:12:39.354Z,93757.56
2023-04-14T17:15:06.785Z,93755.41
2023-04-14T17:17:33.931Z,93744.50
2023-04-14T17:20:01.156Z,93746.69
2023-04-14T17:22:28.683Z,93750.09
2023-04-14T17:24:55.898Z,93773.44
2023-04-14T17:27:22.988Z,93768.41
2023-04-14T17:29:49.718Z,93766.56
2023-04-14T17:32:18.526Z,93755.75
2023-04-14T17:34:48.832Z,93757.13
2023-04-14T17:37:16.462Z,93758.03
2023-04-14T17:39:44.086Z,93748.19
2023-04-14T17:42:12.167Z,93735.59
2023-04-14T17:44:38.968Z,93747.47
2023-04-14T17:47:13.135Z,93752.06
2023-04-14T17:49:46.736Z,93756.38
2023-04-14T17:52:18.442Z,93749.84
2023-04-14T17:54:46.502Z,93730.38
2023-04-14T17:57:14.428Z,93735.97
2023-04-14T17:59:42.272Z,93732.47
2023-04-14T18:02:14.401Z,93745.47
2023-04-14T18:04:41.398Z,93740.63
2023-04-14T18:07:08.130Z,93741.78
2023-04-14T18:09:34.940Z,93743.63
2023-04-14T18:12:02.146Z,93747.59
2023-04-14T18:14:30.626Z,93764.81
2023-04-14T18:16:57.645Z,93770.50
2023-04-14T18:19:24.845Z,93791.84
2023-04-14T18:21:51.809Z,93769.44
2023-04-14T18:26:48.153Z,93764.69
2023-04-14T18:29:15.960Z,93765.53
2023-04-14T18:31:42.783Z,93772.03
2023-04-14T18:34:10.444Z,93777.06
2023-04-14T18:36:38.027Z,93776.28
2023-04-14T18:39:05.024Z,93779.09
2023-04-14T18:41:32.026Z,93768.88
2023-04-14T18:43:58.795Z,93768.50
2023-04-14T18:46:27.720Z,93762.00
2023-04-14T18:48:55.510Z,93768.41
2023-04-14T18:51:22.486Z,93760.84
2023-04-14T18:53:49.433Z,93756.97
2023-04-14T18:56:16.288Z,93745.63
2023-04-14T18:58:43.071Z,93754.31
2023-04-14T19:01:10.038Z,93756.19
2023-04-14T19:03:37.762Z,93743.41
2023-04-14T19:06:04.828Z,93748.03
2023-04-14T19:08:31.761Z,93740.09
2023-04-14T19:11:00.296Z,93744.47
2023-04-14T19:13:27.428Z,93752.38
2023-04-14T19:16:08.959Z,93747.13
2023-04-14T19:18:35.758Z,93741.88
2023-04-14T19:21:03.313Z,93740.69
2023-04-14T19:23:30.622Z,93746.47
2023-04-14T19:25:58.115Z,93752.03
2023-04-14T19:28:26.115Z,93747.19
2023-04-14T19:30:53.240Z,93733.34
2023-04-14T19:33:20.541Z,93748.16
2023-04-14T19:35:49.042Z,93763.81
2023-04-14T19:38:16.494Z,93753.03
2023-04-14T19:40:50.559Z,93755.19
2023-04-14T19:43:18.655Z,93746.41
2023-04-14T19:45:52.570Z,93749.38
2023-04-14T19:48:23.892Z,93759.38
2023-04-14T19:50:54.404Z,93770.69
2023-04-14T19:53:22.405Z,93737.72
2023-04-14T19:55:50.516Z,93779.63
2023-04-14T19:58:21.711Z,93728.72
2023-04-14T20:00:50.997Z,93772.56
2023-04-14T20:03:19.258Z,93773.88
2023-04-14T20:05:51.145Z,93754.13
2023-04-14T20:08:18.513Z,93746.16
2023-04-14T20:10:45.400Z,93757.47
2023-04-14T20:13:13.729Z,93772.47
2023-04-14T20:15:42.498Z,93778.47
2023-04-14T20:18:10.340Z,93795.53
2023-04-14T20:20:40.712Z,93791.16
2023-04-14T20:23:07.662Z,93784.28
2023-04-14T20:25:35.357Z,93766.00
2023-04-14T20:28:02.058Z,93776.41
2023-04-14T20:30:29.492Z,93806.13
2023-04-14T20:32:56.662Z,93788.75
2023-04-14T20:35:23.652Z,93792.28
2023-04-14T20:37:50.364Z,93777.66
2023-04-14T20:40:18.273Z,93793.88
2023-04-14T20:42:45.651Z,93782.34
2023-04-14T20:45:12.717Z,93778.66
2023-04-14T20:47:39.444Z,93769.22
2023-04-14T20:50:07.533Z,93779.31
2023-04-14T20:52:35.483Z,93765.50
2023-04-14T20:55:03.639Z,93739.34
2023-04-14T20:57:30.707Z,93774.91
2023-04-14T20:59:57.721Z,93762.66
2023-04-14T21:02:24.455Z,93782.31
2023-04-14T21:04:51.545Z,93755.16
2023-04-14T21:07:18.843Z,93763.66
2023-04-14T21:09:45.939Z,93774.16
2023-04-14T21:12:15.410Z,93769.28
2023-04-14T21:15:44.445Z,93736.38
2023-04-14T21:17:30.218Z,93748.66
2023-04-14T21:19:57.610Z,93769.91
2023-04-14T21:22:24.444Z,93770.72
2023-04-14T21:24:51.197Z,93776.41
2023-04-14T21:27:17.975Z,93755.03
2023-04-14T21:29:45.111Z,93755.66
2023-04-14T21:32:12.330Z,93746.25
2023-04-14T21:34:39.101Z,93761.13
2023-04-14T21:37:05.838Z,93727.25
2023-04-14T21:39:33.750Z,93727.97
2023-04-14T21:42:02.199Z,93738.81
2023-04-14T21:44:29.973Z,93755.16
2023-04-14T21:46:57.060Z,93750.94
2023-04-14T21:49:23.816Z,93748.91
2023-04-14T21:51:51.404Z,93711.91
2023-04-14T21:54:18.964Z,93736.16
2023-04-14T21:56:46.503Z,93753.59
2023-04-14T21:59:13.800Z,93726.47
2023-04-14T22:01:41.092Z,93706.97
2023-04-14T22:04:08.281Z,93748.91
2023-04-14T22:06:37.893Z,93732.31
2023-04-14T22:09:06.220Z,93724.78
2023-04-14T22:11:33.348Z,93719.78
2023-04-14T22:14:01.370Z,93710.38
2023-04-14T22:16:28.752Z,93743.28
2023-04-14T22:18:56.224Z,93738.59
2023-04-14T22:21:23.439Z,93716.78
2023-04-14T22:23:50.340Z,93717.44
2023-04-14T22:26:17.618Z,93713.50
2023-04-14T22:28:44.694Z,93729.31
2023-04-14T22:31:11.921Z,93693.84
2023-04-14T22:33:38.859Z,93722.47
2023-04-14T22:36:07.053Z,93730.13
2023-04-14T22:38:33.961Z,93719.31
2023-04-14T22:41:02.058Z,93734.66
2023-04-14T22:43:29.938Z,93715.88
2023-04-14T22:45:56.810Z,93723.22
2023-04-14T22:48:23.804Z,93732.47
2023-04-14T22:50:50.978Z,93716.34
2023-04-14T22:53:18.522Z,93714.13
2023-04-14T22:55:45.271Z,93679.50
2023-04-14T22:58:17.096Z,93710.44
2023-04-14T23:00:45.172Z,93725.34
2023-04-14T23:03:12.497Z,93721.66
2023-04-14T23:05:39.843Z,93722.09
2023-04-14T23:08:06.701Z,93671.84
2023-04-14T23:10:33.832Z,93746.13
2023-04-14T23:13:00.988Z,93730.34
2023-04-14T23:15:27.941Z,93705.84
2023-04-14T23:17:55.725Z,93692.09
2023-04-14T23:20:22.706Z,93716.94
2023-04-14T23:22:50.613Z,93734.47
2023-04-14T23:25:17.455Z,93701.47
2023-04-14T23:27:44.366Z,93702.13
2023-04-14T23:30:11.489Z,93736.66
2023-04-14T23:32:38.312Z,93736.19
2023-04-14T23:35:06.310Z,93712.88
2023-04-14T23:37:33.762Z,93721.81
2023-04-14T23:40:00.694Z,93675.03
2023-04-14T23:42:28.027Z,93718.22
2023-04-14T23:44:54.698Z,93714.44
2023-04-14T23:47:22.346Z,93686.44
2023-04-14T23:49:49.089Z,93718.38
2023-04-14T23:52:16.470Z,93691.53
2023-04-14T23:54:43.508Z,93711.47
2023-04-14T23:57:10.268Z,93686.16
2023-04-14T23:59:37.075Z,93685.56
